sensor_id;sensor_type;location;lat;lon;timestamp;P1;durP1;ratioP1;P2;durP2;ratioP2
5225;SDS011;2632;51.666;7.146;2023-04-24T00:00:46;0.70;;;0.60;;
5225;SDS011;2632;51.666;7.146;2023-04-24T00:03:13;3.70;;;0.80;;
5225;SDS011;2632;51.666;7.146;2023-04-24T00:05:40;1.90;;;1.07;;
5225;SDS011;2632;51.666;7.146;2023-04-24T00:08:07;1.10;;;0.93;;
5225;SDS011;2632;51.666;7.146;2023-04-24T00:10:33;0.93;;;0.80;;
5225;SDS011;2632;51.666;7.146;2023-04-24T00:13:00;1.87;;;0.97;;
5225;SDS011;2632;51.666;7.146;2023-04-24T00:15:27;5.07;;;1.00;;
5225;SDS011;2632;51.666;7.146;2023-04-24T00:17:53;2.83;;;1.03;;
5225;SDS011;2632;51.666;7.146;2023-04-24T00:20:20;2.00;;;0.87;;
5225;SDS011;2632;51.666;7.146;2023-04-24T00:22:48;1.60;;;1.10;;
5225;SDS011;2632;51.666;7.146;2023-04-24T00:25:15;1.83;;;0.87;;
5225;SDS011;2632;51.666;7.146;2023-04-24T00:27:42;1.57;;;1.30;;
5225;SDS011;2632;51.666;7.146;2023-04-24T00:30:08;2.00;;;1.17;;
5225;SDS011;2632;51.666;7.146;2023-04-24T00:32:35;4.80;;;1.30;;
5225;SDS011;2632;51.666;7.146;2023-04-24T00:35:02;1.07;;;0.83;;
5225;SDS011;2632;51.666;7.146;2023-04-24T00:37:29;1.80;;;1.13;;
5225;SDS011;2632;51.666;7.146;2023-04-24T00:39:55;1.00;;;0.97;;
5225;SDS011;2632;51.666;7.146;2023-04-24T00:42:22;1.90;;;1.10;;
5225;SDS011;2632;51.666;7.146;2023-04-24T00:44:49;1.50;;;1.10;;
5225;SDS011;2632;51.666;7.146;2023-04-24T00:47:19;1.83;;;1.00;;
5225;SDS011;2632;51.666;7.146;2023-04-24T00:49:46;1.07;;;1.00;;
5225;SDS011;2632;51.666;7.146;2023-04-24T00:52:12;1.10;;;1.00;;
5225;SDS011;2632;51.666;7.146;2023-04-24T00:54:44;2.40;;;1.40;;
5225;SDS011;2632;51.666;7.146;2023-04-24T00:57:11;1.90;;;1.20;;
5225;SDS011;2632;51.666;7.146;2023-04-24T00:59:41;1.53;;;1.30;;
5225;SDS011;2632;51.666;7.146;2023-04-24T01:02:09;1.03;;;1.03;;
5225;SDS011;2632;51.666;7.146;2023-04-24T01:04:37;2.77;;;1.50;;
5225;SDS011;2632;51.666;7.146;2023-04-24T01:07:04;3.30;;;1.73;;
5225;SDS011;2632;51.666;7.146;2023-04-24T01:09:39;1.93;;;1.57;;
5225;SDS011;2632;51.666;7.146;2023-04-24T01:12:09;3.03;;;1.40;;
5225;SDS011;2632;51.666;7.146;2023-04-24T01:14:37;2.40;;;1.70;;
5225;SDS011;2632;51.666;7.146;2023-04-24T01:17:04;2.30;;;1.83;;
5225;SDS011;2632;51.666;7.146;2023-04-24T01:19:31;3.23;;;1.90;;
5225;SDS011;2632;51.666;7.146;2023-04-24T01:21:58;3.43;;;2.27;;
5225;SDS011;2632;51.666;7.146;2023-04-24T01:24:28;2.60;;;2.10;;
5225;SDS011;2632;51.666;7.146;2023-04-24T01:26:56;4.73;;;2.50;;
5225;SDS011;2632;51.666;7.146;2023-04-24T01:29:22;3.00;;;2.17;;
5225;SDS011;2632;51.666;7.146;2023-04-24T01:31:50;2.60;;;2.13;;
5225;SDS011;2632;51.666;7.146;2023-04-24T01:34:17;3.40;;;2.20;;
5225;SDS011;2632;51.666;7.146;2023-04-24T01:36:45;3.60;;;2.20;;
5225;SDS011;2632;51.666;7.146;2023-04-24T01:39:12;2.77;;;1.90;;
5225;SDS011;2632;51.666;7.146;2023-04-24T01:41:39;2.30;;;2.10;;
5225;SDS011;2632;51.666;7.146;2023-04-24T01:44:06;3.90;;;2.63;;
5225;SDS011;2632;51.666;7.146;2023-04-24T01:46:33;3.87;;;2.93;;
5225;SDS011;2632;51.666;7.146;2023-04-24T01:49:01;4.03;;;2.37;;
5225;SDS011;2632;51.666;7.146;2023-04-24T01:51:28;5.43;;;3.07;;
5225;SDS011;2632;51.666;7.146;2023-04-24T01:53:56;6.60;;;3.67;;
5225;SDS011;2632;51.666;7.146;2023-04-24T01:56:22;6.17;;;3.47;;
5225;SDS011;2632;51.666;7.146;2023-04-24T01:58:50;5.63;;;3.80;;
5225;SDS011;2632;51.666;7.146;2023-04-24T02:01:19;5.73;;;3.90;;
5225;SDS011;2632;51.666;7.146;2023-04-24T02:03:47;5.33;;;3.53;;
5225;SDS011;2632;51.666;7.146;2023-04-24T02:06:13;5.23;;;3.50;;
5225;SDS011;2632;51.666;7.146;2023-04-24T02:08:40;6.13;;;3.77;;
5225;SDS011;2632;51.666;7.146;2023-04-24T02:11:10;6.73;;;4.33;;
5225;SDS011;2632;51.666;7.146;2023-04-24T02:13:37;5.43;;;4.00;;
5225;SDS011;2632;51.666;7.146;2023-04-24T02:16:03;9.27;;;5.03;;
5225;SDS011;2632;51.666;7.146;2023-04-24T02:18:30;6.33;;;4.70;;
5225;SDS011;2632;51.666;7.146;2023-04-24T02:20:57;10.07;;;4.60;;
5225;SDS011;2632;51.666;7.146;2023-04-24T02:23:23;6.30;;;4.47;;
5225;SDS011;2632;51.666;7.146;2023-04-24T02:25:50;8.10;;;5.40;;
5225;SDS011;2632;51.666;7.146;2023-04-24T02:28:19;7.67;;;4.83;;
5225;SDS011;2632;51.666;7.146;2023-04-24T02:30:45;7.27;;;5.10;;
5225;SDS011;2632;51.666;7.146;2023-04-24T02:33:12;9.70;;;5.03;;
5225;SDS011;2632;51.666;7.146;2023-04-24T02:35:39;6.33;;;4.83;;
5225;SDS011;2632;51.666;7.146;2023-04-24T02:38:05;7.17;;;4.60;;
5225;SDS011;2632;51.666;7.146;2023-04-24T02:40:32;17.00;;;6.20;;
5225;SDS011;2632;51.666;7.146;2023-04-24T02:42:59;12.20;;;5.57;;
5225;SDS011;2632;51.666;7.146;2023-04-24T02:45:25;7.40;;;5.60;;
5225;SDS011;2632;51.666;7.146;2023-04-24T02:47:52;9.07;;;6.07;;
5225;SDS011;2632;51.666;7.146;2023-04-24T02:50:19;8.60;;;6.07;;
5225;SDS011;2632;51.666;7.146;2023-04-24T02:52:45;7.93;;;5.20;;
5225;SDS011;2632;51.666;7.146;2023-04-24T02:55:12;10.77;;;6.17;;
5225;SDS011;2632;51.666;7.146;2023-04-24T02:57:39;9.27;;;5.83;;
5225;SDS011;2632;51.666;7.146;2023-04-24T03:00:07;10.93;;;7.10;;
5225;SDS011;2632;51.666;7.146;2023-04-24T03:02:34;9.50;;;6.67;;
5225;SDS011;2632;51.666;7.146;2023-04-24T03:05:01;12.10;;;6.50;;
5225;SDS011;2632;51.666;7.146;2023-04-24T03:07:29;13.40;;;7.60;;
5225;SDS011;2632;51.666;7.146;2023-04-24T03:09:57;11.40;;;7.03;;
5225;SDS011;2632;51.666;7.146;2023-04-24T03:12:24;15.83;;;8.57;;
5225;SDS011;2632;51.666;7.146;2023-04-24T03:14:51;15.63;;;8.20;;
5225;SDS011;2632;51.666;7.146;2023-04-24T03:17:17;13.73;;;7.93;;
5225;SDS011;2632;51.666;7.146;2023-04-24T03:19:44;13.80;;;7.90;;
5225;SDS011;2632;51.666;7.146;2023-04-24T03:22:11;11.00;;;7.33;;
5225;SDS011;2632;51.666;7.146;2023-04-24T03:24:38;13.73;;;8.50;;
5225;SDS011;2632;51.666;7.146;2023-04-24T03:27:04;11.23;;;7.53;;
5225;SDS011;2632;51.666;7.146;2023-04-24T03:29:31;13.13;;;7.40;;
5225;SDS011;2632;51.666;7.146;2023-04-24T03:31:58;17.20;;;8.97;;
5225;SDS011;2632;51.666;7.146;2023-04-24T03:34:24;15.03;;;8.00;;
5225;SDS011;2632;51.666;7.146;2023-04-24T03:36:51;17.00;;;8.70;;
5225;SDS011;2632;51.666;7.146;2023-04-24T03:39:18;15.27;;;8.27;;
5225;SDS011;2632;51.666;7.146;2023-04-24T03:41:45;13.97;;;8.83;;
5225;SDS011;2632;51.666;7.146;2023-04-24T03:44:11;19.97;;;9.33;;
5225;SDS011;2632;51.666;7.146;2023-04-24T03:46:38;15.07;;;8.73;;
5225;SDS011;2632;51.666;7.146;2023-04-24T03:49:05;16.73;;;8.77;;
5225;SDS011;2632;51.666;7.146;2023-04-24T03:51:31;15.87;;;9.10;;
5225;SDS011;2632;51.666;7.146;2023-04-24T03:53:58;20.30;;;10.67;;
5225;SDS011;2632;51.666;7.146;2023-04-24T03:56:25;16.10;;;9.33;;
5225;SDS011;2632;51.666;7.146;2023-04-24T03:58:51;17.20;;;9.73;;
5225;SDS011;2632;51.666;7.146;2023-04-24T04:01:18;17.80;;;10.90;;
5225;SDS011;2632;51.666;7.146;2023-04-24T04:03:46;17.10;;;9.90;;
5225;SDS011;2632;51.666;7.146;2023-04-24T04:06:13;17.47;;;9.33;;
5225;SDS011;2632;51.666;7.146;2023-04-24T04:08:40;19.87;;;10.60;;
5225;SDS011;2632;51.666;7.146;2023-04-24T04:11:07;17.90;;;11.13;;
5225;SDS011;2632;51.666;7.146;2023-04-24T04:13:33;23.57;;;11.27;;
5225;SDS011;2632;51.666;7.146;2023-04-24T04:16:00;16.73;;;10.10;;
5225;SDS011;2632;51.666;7.146;2023-04-24T04:18:27;19.50;;;9.47;;
5225;SDS011;2632;51.666;7.146;2023-04-24T04:20:53;15.30;;;9.20;;
5225;SDS011;2632;51.666;7.146;2023-04-24T04:23:20;21.47;;;10.30;;
5225;SDS011;2632;51.666;7.146;2023-04-24T04:25:46;19.50;;;10.00;;
5225;SDS011;2632;51.666;7.146;2023-04-24T04:28:13;23.77;;;11.00;;
5225;SDS011;2632;51.666;7.146;2023-04-24T04:30:40;19.10;;;11.10;;
5225;SDS011;2632;51.666;7.146;2023-04-24T04:33:07;20.27;;;10.10;;
5225;SDS011;2632;51.666;7.146;2023-04-24T04:35:34;21.80;;;10.80;;
5225;SDS011;2632;51.666;7.146;2023-04-24T04:38:01;19.97;;;10.97;;
5225;SDS011;2632;51.666;7.146;2023-04-24T04:40:28;22.50;;;10.33;;
5225;SDS011;2632;51.666;7.146;2023-04-24T04:42:56;21.90;;;11.73;;
5225;SDS011;2632;51.666;7.146;2023-04-24T04:45:22;17.27;;;9.87;;
5225;SDS011;2632;51.666;7.146;2023-04-24T04:47:50;20.67;;;10.50;;
5225;SDS011;2632;51.666;7.146;2023-04-24T04:50:17;20.63;;;10.67;;
5225;SDS011;2632;51.666;7.146;2023-04-24T04:52:45;20.60;;;10.67;;
5225;SDS011;2632;51.666;7.146;2023-04-24T04:55:12;24.17;;;10.80;;
5225;SDS011;2632;51.666;7.146;2023-04-24T04:57:39;19.70;;;11.30;;
5225;SDS011;2632;51.666;7.146;2023-04-24T05:00:06;20.30;;;10.10;;
5225;SDS011;2632;51.666;7.146;2023-04-24T05:02:33;21.23;;;10.77;;
5225;SDS011;2632;51.666;7.146;2023-04-24T05:05:00;18.43;;;10.00;;
5225;SDS011;2632;51.666;7.146;2023-04-24T05:07:27;24.70;;;10.63;;
5225;SDS011;2632;51.666;7.146;2023-04-24T05:09:54;15.83;;;10.17;;
5225;SDS011;2632;51.666;7.146;2023-04-24T05:12:20;19.97;;;11.00;;
5225;SDS011;2632;51.666;7.146;2023-04-24T05:14:47;17.97;;;10.30;;
5225;SDS011;2632;51.666;7.146;2023-04-24T05:17:14;21.93;;;10.60;;
5225;SDS011;2632;51.666;7.146;2023-04-24T05:19:41;15.30;;;9.57;;
5225;SDS011;2632;51.666;7.146;2023-04-24T05:22:08;17.07;;;9.50;;
5225;SDS011;2632;51.666;7.146;2023-04-24T05:24:36;16.43;;;9.03;;
5225;SDS011;2632;51.666;7.146;2023-04-24T05:27:03;17.93;;;10.20;;
5225;SDS011;2632;51.666;7.146;2023-04-24T05:29:31;13.77;;;8.97;;
5225;SDS011;2632;51.666;7.146;2023-04-24T05:31:59;13.43;;;9.07;;
5225;SDS011;2632;51.666;7.146;2023-04-24T05:34:26;13.70;;;8.87;;
5225;SDS011;2632;51.666;7.146;2023-04-24T05:36:53;18.57;;;9.07;;
5225;SDS011;2632;51.666;7.146;2023-04-24T05:39:19;15.07;;;9.20;;
5225;SDS011;2632;51.666;7.146;2023-04-24T05:41:46;16.90;;;9.17;;
5225;SDS011;2632;51.666;7.146;2023-04-24T05:44:13;12.70;;;8.30;;
5225;SDS011;2632;51.666;7.146;2023-04-24T05:46:39;16.00;;;9.27;;
5225;SDS011;2632;51.666;7.146;2023-04-24T05:49:06;15.00;;;8.97;;
5225;SDS011;2632;51.666;7.146;2023-04-24T05:51:33;12.77;;;8.60;;
5225;SDS011;2632;51.666;7.146;2023-04-24T05:53:59;15.03;;;9.00;;
5225;SDS011;2632;51.666;7.146;2023-04-24T05:56:27;17.77;;;9.67;;
5225;SDS011;2632;51.666;7.146;2023-04-24T05:58:53;16.00;;;8.80;;
5225;SDS011;2632;51.666;7.146;2023-04-24T06:01:20;14.73;;;9.00;;
5225;SDS011;2632;51.666;7.146;2023-04-24T06:03:47;11.27;;;7.90;;
5225;SDS011;2632;51.666;7.146;2023-04-24T06:06:13;13.73;;;8.90;;
5225;SDS011;2632;51.666;7.146;2023-04-24T06:08:41;16.20;;;8.77;;
5225;SDS011;2632;51.666;7.146;2023-04-24T06:11:10;13.90;;;8.20;;
5225;SDS011;2632;51.666;7.146;2023-04-24T06:13:36;15.13;;;9.17;;
5225;SDS011;2632;51.666;7.146;2023-04-24T06:16:03;14.37;;;8.63;;
5225;SDS011;2632;51.666;7.146;2023-04-24T06:18:30;13.80;;;9.47;;
5225;SDS011;2632;51.666;7.146;2023-04-24T06:20:57;15.53;;;8.97;;
5225;SDS011;2632;51.666;7.146;2023-04-24T06:23:23;15.60;;;8.30;;
5225;SDS011;2632;51.666;7.146;2023-04-24T06:25:50;14.40;;;8.60;;
5225;SDS011;2632;51.666;7.146;2023-04-24T06:28:17;14.60;;;8.70;;
5225;SDS011;2632;51.666;7.146;2023-04-24T06:30:44;14.30;;;8.60;;
5225;SDS011;2632;51.666;7.146;2023-04-24T06:33:10;13.37;;;8.30;;
5225;SDS011;2632;51.666;7.146;2023-04-24T06:35:46;14.40;;;8.70;;
5225;SDS011;2632;51.666;7.146;2023-04-24T06:38:12;12.50;;;8.10;;
5225;SDS011;2632;51.666;7.146;2023-04-24T06:40:39;14.03;;;8.77;;
5225;SDS011;2632;51.666;7.146;2023-04-24T06:43:06;17.07;;;9.87;;
5225;SDS011;2632;51.666;7.146;2023-04-24T06:45:33;18.97;;;9.50;;
5225;SDS011;2632;51.666;7.146;2023-04-24T06:47:59;12.97;;;8.23;;
5225;SDS011;2632;51.666;7.146;2023-04-24T06:50:26;12.03;;;7.33;;
5225;SDS011;2632;51.666;7.146;2023-04-24T06:52:53;11.60;;;8.33;;
5225;SDS011;2632;51.666;7.146;2023-04-24T06:55:19;14.70;;;7.63;;
5225;SDS011;2632;51.666;7.146;2023-04-24T06:57:46;12.10;;;7.40;;
5225;SDS011;2632;51.666;7.146;2023-04-24T07:00:13;12.67;;;7.00;;
5225;SDS011;2632;51.666;7.146;2023-04-24T07:02:40;10.60;;;6.97;;
5225;SDS011;2632;51.666;7.146;2023-04-24T07:05:07;14.07;;;7.50;;
5225;SDS011;2632;51.666;7.146;2023-04-24T07:07:34;10.67;;;6.97;;
5225;SDS011;2632;51.666;7.146;2023-04-24T07:10:04;12.17;;;7.13;;
5225;SDS011;2632;51.666;7.146;2023-04-24T07:12:31;12.10;;;7.30;;
5225;SDS011;2632;51.666;7.146;2023-04-24T07:14:58;13.03;;;6.60;;
5225;SDS011;2632;51.666;7.146;2023-04-24T07:17:26;8.93;;;6.37;;
5225;SDS011;2632;51.666;7.146;2023-04-24T07:19:53;9.70;;;5.83;;
5225;SDS011;2632;51.666;7.146;2023-04-24T07:22:19;10.43;;;6.30;;
5225;SDS011;2632;51.666;7.146;2023-04-24T07:24:46;11.40;;;6.60;;
5225;SDS011;2632;51.666;7.146;2023-04-24T07:27:13;6.97;;;5.23;;
5225;SDS011;2632;51.666;7.146;2023-04-24T07:29:41;11.40;;;6.20;;
5225;SDS011;2632;51.666;7.146;2023-04-24T07:32:08;9.63;;;5.97;;
5225;SDS011;2632;51.666;7.146;2023-04-24T07:34:35;9.17;;;5.83;;
5225;SDS011;2632;51.666;7.146;2023-04-24T07:37:01;8.73;;;5.87;;
5225;SDS011;2632;51.666;7.146;2023-04-24T07:39:29;9.03;;;6.07;;
5225;SDS011;2632;51.666;7.146;2023-04-24T07:41:55;8.23;;;5.10;;
5225;SDS011;2632;51.666;7.146;2023-04-24T07:44:22;9.30;;;5.43;;
5225;SDS011;2632;51.666;7.146;2023-04-24T07:46:49;9.77;;;5.60;;
5225;SDS011;2632;51.666;7.146;2023-04-24T07:49:16;9.17;;;5.50;;
5225;SDS011;2632;51.666;7.146;2023-04-24T07:51:45;7.33;;;5.60;;
5225;SDS011;2632;51.666;7.146;2023-04-24T07:54:12;7.70;;;5.70;;
5225;SDS011;2632;51.666;7.146;2023-04-24T07:56:38;7.53;;;5.40;;
5225;SDS011;2632;51.666;7.146;2023-04-24T07:59:07;6.63;;;4.97;;
5225;SDS011;2632;51.666;7.146;2023-04-24T08:01:35;10.30;;;4.30;;
5225;SDS011;2632;51.666;7.146;2023-04-24T08:04:02;6.87;;;4.80;;
5225;SDS011;2632;51.666;7.146;2023-04-24T08:06:29;5.00;;;3.63;;
5225;SDS011;2632;51.666;7.146;2023-04-24T08:08:57;4.07;;;3.20;;
5225;SDS011;2632;51.666;7.146;2023-04-24T08:11:24;4.00;;;2.93;;
5225;SDS011;2632;51.666;7.146;2023-04-24T08:13:51;4.30;;;3.00;;
5225;SDS011;2632;51.666;7.146;2023-04-24T08:16:18;4.43;;;3.10;;
5225;SDS011;2632;51.666;7.146;2023-04-24T08:18:45;3.40;;;2.90;;
5225;SDS011;2632;51.666;7.146;2023-04-24T08:21:11;1.93;;;1.83;;
5225;SDS011;2632;51.666;7.146;2023-04-24T08:23:43;3.00;;;2.40;;
5225;SDS011;2632;51.666;7.146;2023-04-24T08:26:09;2.50;;;1.80;;
5225;SDS011;2632;51.666;7.146;2023-04-24T08:28:37;2.00;;;1.90;;
5225;SDS011;2632;51.666;7.146;2023-04-24T08:31:04;2.00;;;1.77;;
5225;SDS011;2632;51.666;7.146;2023-04-24T08:33:31;2.13;;;1.80;;
5225;SDS011;2632;51.666;7.146;2023-04-24T08:36:03;2.30;;;2.10;;
5225;SDS011;2632;51.666;7.146;2023-04-24T08:38:31;3.33;;;2.53;;
5225;SDS011;2632;51.666;7.146;2023-04-24T08:40:59;2.47;;;2.20;;
5225;SDS011;2632;51.666;7.146;2023-04-24T08:43:26;3.03;;;2.73;;
5225;SDS011;2632;51.666;7.146;2023-04-24T08:45:55;4.77;;;2.83;;
5225;SDS011;2632;51.666;7.146;2023-04-24T08:48:23;4.43;;;3.03;;
5225;SDS011;2632;51.666;7.146;2023-04-24T08:50:57;5.60;;;2.97;;
5225;SDS011;2632;51.666;7.146;2023-04-24T08:53:25;4.20;;;3.10;;
5225;SDS011;2632;51.666;7.146;2023-04-24T08:55:52;6.33;;;3.23;;
5225;SDS011;2632;51.666;7.146;2023-04-24T08:58:21;3.13;;;2.83;;
5225;SDS011;2632;51.666;7.146;2023-04-24T09:00:51;4.07;;;3.60;;
5225;SDS011;2632;51.666;7.146;2023-04-24T09:03:20;3.20;;;2.90;;
5225;SDS011;2632;51.666;7.146;2023-04-24T09:05:47;5.03;;;3.50;;
5225;SDS011;2632;51.666;7.146;2023-04-24T09:08:17;3.13;;;2.83;;
5225;SDS011;2632;51.666;7.146;2023-04-24T09:10:44;3.83;;;3.10;;
5225;SDS011;2632;51.666;7.146;2023-04-24T09:13:14;3.10;;;2.73;;
5225;SDS011;2632;51.666;7.146;2023-04-24T09:15:41;3.20;;;2.40;;
5225;SDS011;2632;51.666;7.146;2023-04-24T09:18:08;3.17;;;2.10;;
5225;SDS011;2632;51.666;7.146;2023-04-24T09:20:35;3.37;;;2.30;;
5225;SDS011;2632;51.666;7.146;2023-04-24T09:23:25;2.17;;;1.97;;
5225;SDS011;2632;51.666;7.146;2023-04-24T09:25:56;3.07;;;2.00;;
5225;SDS011;2632;51.666;7.146;2023-04-24T09:28:25;2.13;;;1.93;;
5225;SDS011;2632;51.666;7.146;2023-04-24T09:31:02;2.50;;;2.27;;
5225;SDS011;2632;51.666;7.146;2023-04-24T09:33:30;2.47;;;2.27;;
5225;SDS011;2632;51.666;7.146;2023-04-24T09:35:57;4.53;;;1.83;;
5225;SDS011;2632;51.666;7.146;2023-04-24T09:38:32;3.63;;;2.50;;
5225;SDS011;2632;51.666;7.146;2023-04-24T09:41:03;3.70;;;2.10;;
5225;SDS011;2632;51.666;7.146;2023-04-24T09:43:31;2.13;;;1.63;;
5225;SDS011;2632;51.666;7.146;2023-04-24T09:45:59;1.63;;;1.40;;
5225;SDS011;2632;51.666;7.146;2023-04-24T09:48:31;2.30;;;1.80;;
5225;SDS011;2632;51.666;7.146;2023-04-24T09:51:00;4.40;;;2.53;;
5225;SDS011;2632;51.666;7.146;2023-04-24T09:53:27;4.90;;;3.70;;
5225;SDS011;2632;51.666;7.146;2023-04-24T09:55:56;4.90;;;3.37;;
5225;SDS011;2632;51.666;7.146;2023-04-24T09:58:28;6.80;;;4.37;;
5225;SDS011;2632;51.666;7.146;2023-04-24T10:00:56;6.77;;;3.60;;
5225;SDS011;2632;51.666;7.146;2023-04-24T10:03:26;8.83;;;5.67;;
5225;SDS011;2632;51.666;7.146;2023-04-24T10:05:59;4.70;;;3.13;;
5225;SDS011;2632;51.666;7.146;2023-04-24T10:08:26;5.47;;;3.90;;
5225;SDS011;2632;51.666;7.146;2023-04-24T10:11:00;6.07;;;3.33;;
5225;SDS011;2632;51.666;7.146;2023-04-24T10:13:28;10.80;;;3.60;;
5225;SDS011;2632;51.666;7.146;2023-04-24T10:15:55;5.47;;;3.63;;
5225;SDS011;2632;51.666;7.146;2023-04-24T10:18:24;6.00;;;3.50;;
5225;SDS011;2632;51.666;7.146;2023-04-24T10:20:52;6.70;;;4.53;;
5225;SDS011;2632;51.666;7.146;2023-04-24T10:23:21;6.57;;;4.00;;
5225;SDS011;2632;51.666;7.146;2023-04-24T10:25:49;6.43;;;3.50;;
5225;SDS011;2632;51.666;7.146;2023-04-24T10:28:17;4.67;;;3.53;;
5225;SDS011;2632;51.666;7.146;2023-04-24T10:30:45;5.17;;;3.60;;
5225;SDS011;2632;51.666;7.146;2023-04-24T10:33:12;5.83;;;3.70;;
5225;SDS011;2632;51.666;7.146;2023-04-24T10:35:44;7.00;;;3.60;;
5225;SDS011;2632;51.666;7.146;2023-04-24T10:38:17;9.10;;;4.10;;
5225;SDS011;2632;51.666;7.146;2023-04-24T10:40:50;8.03;;;3.90;;
5225;SDS011;2632;51.666;7.146;2023-04-24T10:43:17;6.60;;;4.57;;
5225;SDS011;2632;51.666;7.146;2023-04-24T10:46:04;6.23;;;3.90;;
5225;SDS011;2632;51.666;7.146;2023-04-24T10:48:32;6.47;;;4.20;;
5225;SDS011;2632;51.666;7.146;2023-04-24T10:50:59;10.10;;;4.63;;
5225;SDS011;2632;51.666;7.146;2023-04-24T10:53:28;9.13;;;4.40;;
5225;SDS011;2632;51.666;7.146;2023-04-24T10:56:02;8.20;;;4.30;;
5225;SDS011;2632;51.666;7.146;2023-04-24T10:58:37;12.70;;;4.70;;
5225;SDS011;2632;51.666;7.146;2023-04-24T11:01:25;9.23;;;4.33;;
5225;SDS011;2632;51.666;7.146;2023-04-24T11:03:56;8.60;;;4.50;;
5225;SDS011;2632;51.666;7.146;2023-04-24T11:06:31;10.33;;;3.63;;
5225;SDS011;2632;51.666;7.146;2023-04-24T11:09:04;8.33;;;3.70;;
5225;SDS011;2632;51.666;7.146;2023-04-24T11:11:33;6.57;;;4.10;;
5225;SDS011;2632;51.666;7.146;2023-04-24T11:14:02;9.77;;;4.20;;
5225;SDS011;2632;51.666;7.146;2023-04-24T11:21:43;17.37;;;4.87;;
5225;SDS011;2632;51.666;7.146;2023-04-24T11:24:24;5.57;;;3.50;;
5225;SDS011;2632;51.666;7.146;2023-04-24T11:26:55;12.67;;;4.37;;
5225;SDS011;2632;51.666;7.146;2023-04-24T11:29:44;11.03;;;3.23;;
5225;SDS011;2632;51.666;7.146;2023-04-24T11:32:26;12.07;;;5.53;;
5225;SDS011;2632;51.666;7.146;2023-04-24T11:34:59;11.47;;;4.80;;
5225;SDS011;2632;51.666;7.146;2023-04-24T11:37:41;9.80;;;4.10;;
5225;SDS011;2632;51.666;7.146;2023-04-24T11:40:12;8.93;;;3.97;;
5225;SDS011;2632;51.666;7.146;2023-04-24T11:42:44;10.20;;;4.37;;
5225;SDS011;2632;51.666;7.146;2023-04-24T11:45:16;12.50;;;4.77;;
5225;SDS011;2632;51.666;7.146;2023-04-24T11:47:50;21.87;;;6.00;;
5225;SDS011;2632;51.666;7.146;2023-04-24T11:50:17;14.20;;;4.50;;
5225;SDS011;2632;51.666;7.146;2023-04-24T11:52:46;7.93;;;3.70;;
5225;SDS011;2632;51.666;7.146;2023-04-24T11:57:43;8.10;;;3.67;;
5225;SDS011;2632;51.666;7.146;2023-04-24T12:00:15;17.63;;;4.33;;
5225;SDS011;2632;51.666;7.146;2023-04-24T12:02:45;8.20;;;3.90;;
5225;SDS011;2632;51.666;7.146;2023-04-24T12:05:19;7.27;;;3.20;;
5225;SDS011;2632;51.666;7.146;2023-04-24T12:07:47;11.67;;;3.70;;
5225;SDS011;2632;51.666;7.146;2023-04-24T12:10:19;9.57;;;3.97;;
5225;SDS011;2632;51.666;7.146;2023-04-24T12:12:46;7.10;;;3.63;;
5225;SDS011;2632;51.666;7.146;2023-04-24T12:15:13;10.13;;;3.50;;
5225;SDS011;2632;51.666;7.146;2023-04-24T12:17:42;9.80;;;3.63;;
5225;SDS011;2632;51.666;7.146;2023-04-24T12:20:09;6.17;;;2.63;;
5225;SDS011;2632;51.666;7.146;2023-04-24T12:22:53;8.70;;;2.63;;
5225;SDS011;2632;51.666;7.146;2023-04-24T12:25:28;4.17;;;2.37;;
5225;SDS011;2632;51.666;7.146;2023-04-24T12:28:08;4.40;;;2.13;;
5225;SDS011;2632;51.666;7.146;2023-04-24T12:30:42;7.40;;;3.10;;
5225;SDS011;2632;51.666;7.146;2023-04-24T12:33:11;4.73;;;2.20;;
5225;SDS011;2632;51.666;7.146;2023-04-24T12:35:39;6.83;;;2.20;;
5225;SDS011;2632;51.666;7.146;2023-04-24T12:38:10;8.13;;;2.40;;
5225;SDS011;2632;51.666;7.146;2023-04-24T12:40:39;6.90;;;2.40;;
5225;SDS011;2632;51.666;7.146;2023-04-24T12:43:17;6.03;;;2.10;;
5225;SDS011;2632;51.666;7.146;2023-04-24T12:45:47;4.50;;;2.70;;
5225;SDS011;2632;51.666;7.146;2023-04-24T12:48:16;4.60;;;2.27;;
5225;SDS011;2632;51.666;7.146;2023-04-24T12:50:43;8.27;;;2.40;;
5225;SDS011;2632;51.666;7.146;2023-04-24T12:53:12;6.17;;;2.13;;
5225;SDS011;2632;51.666;7.146;2023-04-24T12:55:40;3.73;;;2.10;;
5225;SDS011;2632;51.666;7.146;2023-04-24T12:58:06;5.13;;;2.13;;
5225;SDS011;2632;51.666;7.146;2023-04-24T13:00:33;4.83;;;2.13;;
5225;SDS011;2632;51.666;7.146;2023-04-24T13:03:00;3.60;;;2.07;;
5225;SDS011;2632;51.666;7.146;2023-04-24T13:05:27;4.00;;;1.90;;
5225;SDS011;2632;51.666;7.146;2023-04-24T13:07:55;4.90;;;2.20;;
5225;SDS011;2632;51.666;7.146;2023-04-24T13:10:22;8.37;;;2.17;;
5225;SDS011;2632;51.666;7.146;2023-04-24T13:12:49;5.87;;;1.80;;
5225;SDS011;2632;51.666;7.146;2023-04-24T13:15:16;4.27;;;2.10;;
5225;SDS011;2632;51.666;7.146;2023-04-24T13:17:43;4.27;;;2.27;;
5225;SDS011;2632;51.666;7.146;2023-04-24T13:20:09;3.00;;;1.97;;
5225;SDS011;2632;51.666;7.146;2023-04-24T13:22:36;3.80;;;2.50;;
5225;SDS011;2632;51.666;7.146;2023-04-24T13:25:03;5.60;;;2.33;;
5225;SDS011;2632;51.666;7.146;2023-04-24T13:27:32;4.50;;;1.90;;
5225;SDS011;2632;51.666;7.146;2023-04-24T13:29:58;4.63;;;2.07;;
5225;SDS011;2632;51.666;7.146;2023-04-24T13:32:25;7.20;;;2.10;;
5225;SDS011;2632;51.666;7.146;2023-04-24T13:34:52;3.47;;;2.20;;
5225;SDS011;2632;51.666;7.146;2023-04-24T13:37:19;8.10;;;2.30;;
5225;SDS011;2632;51.666;7.146;2023-04-24T13:39:46;3.00;;;2.20;;
5225;SDS011;2632;51.666;7.146;2023-04-24T13:42:12;3.43;;;1.90;;
5225;SDS011;2632;51.666;7.146;2023-04-24T13:44:39;2.27;;;2.17;;
5225;SDS011;2632;51.666;7.146;2023-04-24T13:47:06;3.40;;;2.10;;
5225;SDS011;2632;51.666;7.146;2023-04-24T13:49:32;3.20;;;2.20;;
5225;SDS011;2632;51.666;7.146;2023-04-24T13:51:59;4.43;;;2.47;;
5225;SDS011;2632;51.666;7.146;2023-04-24T13:54:26;3.03;;;2.03;;
5225;SDS011;2632;51.666;7.146;2023-04-24T13:56:53;2.30;;;2.00;;
5225;SDS011;2632;51.666;7.146;2023-04-24T13:59:20;1.80;;;1.70;;
5225;SDS011;2632;51.666;7.146;2023-04-24T14:01:47;3.50;;;2.10;;
5225;SDS011;2632;51.666;7.146;2023-04-24T14:04:14;3.80;;;2.30;;
5225;SDS011;2632;51.666;7.146;2023-04-24T14:06:41;4.20;;;2.67;;
5225;SDS011;2632;51.666;7.146;2023-04-24T14:09:09;3.90;;;2.30;;
5225;SDS011;2632;51.666;7.146;2023-04-24T14:11:36;4.90;;;2.50;;
5225;SDS011;2632;51.666;7.146;2023-04-24T14:14:02;3.37;;;2.30;;
5225;SDS011;2632;51.666;7.146;2023-04-24T14:16:29;4.57;;;2.57;;
5225;SDS011;2632;51.666;7.146;2023-04-24T14:18:56;4.57;;;2.73;;
5225;SDS011;2632;51.666;7.146;2023-04-24T14:21:23;4.40;;;2.20;;
5225;SDS011;2632;51.666;7.146;2023-04-24T14:23:50;2.50;;;2.10;;
5225;SDS011;2632;51.666;7.146;2023-04-24T14:26:19;7.13;;;2.23;;
5225;SDS011;2632;51.666;7.146;2023-04-24T14:28:45;2.70;;;1.97;;
5225;SDS011;2632;51.666;7.146;2023-04-24T14:31:12;2.27;;;2.07;;
5225;SDS011;2632;51.666;7.146;2023-04-24T14:33:38;5.23;;;2.70;;
5225;SDS011;2632;51.666;7.146;2023-04-24T14:36:05;2.80;;;2.13;;
5225;SDS011;2632;51.666;7.146;2023-04-24T14:38:32;5.60;;;2.43;;
5225;SDS011;2632;51.666;7.146;2023-04-24T14:40:59;3.00;;;2.50;;
5225;SDS011;2632;51.666;7.146;2023-04-24T14:43:28;3.03;;;2.73;;
5225;SDS011;2632;51.666;7.146;2023-04-24T14:45:55;4.90;;;2.70;;
5225;SDS011;2632;51.666;7.146;2023-04-24T14:48:21;3.77;;;2.80;;
5225;SDS011;2632;51.666;7.146;2023-04-24T14:50:48;3.07;;;2.47;;
5225;SDS011;2632;51.666;7.146;2023-04-24T14:53:15;3.40;;;2.27;;
5225;SDS011;2632;51.666;7.146;2023-04-24T14:55:42;4.33;;;2.37;;
5225;SDS011;2632;51.666;7.146;2023-04-24T14:58:09;3.37;;;2.37;;
5225;SDS011;2632;51.666;7.146;2023-04-24T15:00:35;4.57;;;2.27;;
5225;SDS011;2632;51.666;7.146;2023-04-24T15:03:02;3.50;;;2.50;;
5225;SDS011;2632;51.666;7.146;2023-04-24T15:05:29;3.73;;;2.60;;
5225;SDS011;2632;51.666;7.146;2023-04-24T15:07:56;5.70;;;2.90;;
5225;SDS011;2632;51.666;7.146;2023-04-24T15:10:23;2.90;;;2.30;;
5225;SDS011;2632;51.666;7.146;2023-04-24T15:12:51;4.83;;;2.60;;
5225;SDS011;2632;51.666;7.146;2023-04-24T15:15:18;3.60;;;2.50;;
5225;SDS011;2632;51.666;7.146;2023-04-24T15:17:44;3.73;;;2.47;;
5225;SDS011;2632;51.666;7.146;2023-04-24T15:20:11;2.80;;;2.30;;
5225;SDS011;2632;51.666;7.146;2023-04-24T15:22:37;6.20;;;2.50;;